Time;durP1;ratioP1;P1;durP2;ratioP2;P2;SDS_P1;SDS_P2;PMS_P1;PMS_P2;Temp;Humidity;BMP_temperature;BMP_pressure;BME280_temperature;BME280_humidity;BME280_pressure;Samples;Min_cycle;Max_cycle;Signal;HPM_P1;HPM_P2
2023/09/22 00:01:57;;;;;;;3.13;1.00;;;;;;;;;;10330381;28;20250;-77
2023/09/22 00:06:58;;;;;;;0.85;0.85;;;;;;;;;;10306042;28;20328;-76
2023/09/22 00:11:59;;;;;;;1.23;1.15;;;;;;;;;;10304445;28;20223;-77
2023/09/22 00:17:01;;;;;;;0.93;0.82;;;;;;;;;;10337277;28;20228;-76
2023/09/22 00:22:02;;;;;;;1.48;0.70;;;;;;;;;;10309345;28;20271;-77
2023/09/22 00:27:03;;;;;;;0.52;0.52;;;;;;;;;;10321361;28;20441;-78
2023/09/22 00:32:04;;;;;;;0.75;0.75;;;;;;;;;;10330120;28;20269;-77
2023/09/22 00:37:05;;;;;;;1.55;0.60;;;;;;;;;;10312281;28;20303;-77
2023/09/22 00:42:09;;;;;;;0.40;0.40;;;;;;;;;;10295124;28;20556;-77
2023/09/22 00:47:14;;;;;;;1.25;0.50;;;;;;;;;;10314324;28;20327;-78
2023/09/22 00:52:18;;;;;;;0.60;0.60;;;;;;;;;;10318853;28;20267;-77
2023/09/22 00:57:21;;;;;;;0.60;0.60;;;;;;;;;;10317116;28;20612;-78
2023/09/22 01:02:23;;;;;;;0.98;0.70;;;;;;;;;;10315131;28;20225;-78
2023/09/22 01:07:26;;;;;;;0.60;0.60;;;;;;;;;;10312245;28;20229;-79
2023/09/22 01:12:27;;;;;;;0.47;0.47;;;;;;;;;;10301748;28;20231;-79
2023/09/22 01:17:28;;;;;;;0.40;0.40;;;;;;;;;;10329533;28;20323;-79
2023/09/22 01:22:29;;;;;;;0.68;0.68;;;;;;;;;;10304344;28;20255;-79
2023/09/22 01:27:30;;;;;;;0.60;0.60;;;;;;;;;;10323633;28;20234;-79
2023/09/22 01:32:32;;;;;;;1.52;0.70;;;;;;;;;;10300855;28;20232;-79
2023/09/22 01:37:34;;;;;;;0.95;0.80;;;;;;;;;;10323240;28;20613;-78
2023/09/22 01:42:35;;;;;;;0.52;0.52;;;;;;;;;;10287729;28;20220;-78
2023/09/22 01:47:38;;;;;;;0.75;0.70;;;;;;;;;;10322166;28;20299;-77
2023/09/22 01:52:41;;;;;;;1.35;0.68;;;;;;;;;;10304247;28;20224;-78
2023/09/22 01:57:43;;;;;;;1.55;0.50;;;;;;;;;;10309118;28;20204;-78
2023/09/22 02:02:44;;;;;;;0.70;0.70;;;;;;;;;;10302938;28;21160;-78
2023/09/22 02:07:45;;;;;;;1.13;1.00;;;;;;;;;;10286773;28;22164;-76
2023/09/22 02:12:46;;;;;;;1.30;1.20;;;;;;;;;;10289203;28;20224;-76
2023/09/22 02:17:47;;;;;;;1.00;1.00;;;;;;;;;;10272424;28;20216;-75
2023/09/22 02:22:53;;;;;;;1.55;1.13;;;;;;;;;;10313653;28;20247;-76
2023/09/22 02:27:54;;;;;;;1.63;0.88;;;;;;;;;;10288670;28;20225;-76
2023/09/22 02:32:55;;;;;;;1.58;1.48;;;;;;;;;;10317614;28;20318;-76
2023/09/22 02:37:57;;;;;;;1.27;1.27;;;;;;;;;;10292527;28;20254;-77
2023/09/22 02:42:58;;;;;;;0.90;0.90;;;;;;;;;;10307098;28;20283;-77
2023/09/22 02:47:59;;;;;;;0.98;0.60;;;;;;;;;;10326852;28;20652;-76
2023/09/22 02:53:03;;;;;;;0.73;0.73;;;;;;;;;;10292451;28;20224;-77
2023/09/22 02:58:05;;;;;;;0.40;0.40;;;;;;;;;;10289221;28;20240;-76
2023/09/22 03:03:06;;;;;;;0.35;0.35;;;;;;;;;;10324917;28;20621;-77
2023/09/22 03:08:07;;;;;;;0.90;0.40;;;;;;;;;;10310343;28;20390;-77
2023/09/22 03:13:09;;;;;;;1.55;0.25;;;;;;;;;;10308612;28;20224;-76
2023/09/22 03:18:10;;;;;;;0.20;0.20;;;;;;;;;;10313634;28;20666;-77
2023/09/22 03:23:11;;;;;;;0.20;0.20;;;;;;;;;;10305663;28;20223;-76
2023/09/22 03:28:13;;;;;;;1.02;0.30;;;;;;;;;;10326066;28;20218;-76
2023/09/22 03:33:14;;;;;;;0.20;0.20;;;;;;;;;;10326183;28;20246;-77
2023/09/22 03:38:15;;;;;;;0.30;0.30;;;;;;;;;;10317922;28;20216;-77
2023/09/22 03:43:16;;;;;;;3.30;1.50;;;;;;;;;;10296092;28;20216;-76
2023/09/22 03:48:17;;;;;;;0.65;0.60;;;;;;;;;;10306053;28;20815;-77
2023/09/22 03:53:18;;;;;;;0.30;0.30;;;;;;;;;;10292402;28;20228;-76
2023/09/22 03:58:20;;;;;;;0.40;0.40;;;;;;;;;;10292647;28;20247;-76
2023/09/22 04:03:23;;;;;;;0.82;0.50;;;;;;;;;;10303142;28;20223;-76
2023/09/22 04:08:25;;;;;;;0.40;0.40;;;;;;;;;;10320389;28;20264;-76
2023/09/22 04:13:27;;;;;;;0.30;0.30;;;;;;;;;;10321432;28;20225;-75
2023/09/22 04:18:29;;;;;;;0.40;0.40;;;;;;;;;;10320388;28;20208;-76
2023/09/22 04:23:31;;;;;;;0.60;0.30;;;;;;;;;;10306500;28;20222;-75
2023/09/22 04:28:32;;;;;;;0.40;0.40;;;;;;;;;;10299993;28;20252;-76
2023/09/22 04:33:33;;;;;;;0.47;0.45;;;;;;;;;;10305343;28;20224;-77
2023/09/22 04:38:35;;;;;;;0.30;0.30;;;;;;;;;;10290294;28;20267;-76
2023/09/22 04:43:36;;;;;;;0.40;0.40;;;;;;;;;;10329602;28;20849;-77
2023/09/22 04:48:38;;;;;;;0.43;0.43;;;;;;;;;;10307348;28;20593;-76
2023/09/22 04:53:41;;;;;;;0.40;0.40;;;;;;;;;;10310475;28;20608;-76
2023/09/22 04:58:42;;;;;;;3.45;0.40;;;;;;;;;;10306929;28;20223;-76
2023/09/22 05:03:44;;;;;;;1.65;0.50;;;;;;;;;;10300200;28;20232;-75
2023/09/22 05:08:45;;;;;;;0.45;0.45;;;;;;;;;;10309232;28;20251;-77
2023/09/22 05:13:46;;;;;;;0.50;0.50;;;;;;;;;;10321889;28;20240;-75
2023/09/22 05:18:47;;;;;;;2.30;1.30;;;;;;;;;;10318173;28;20749;-76
2023/09/22 05:23:48;;;;;;;0.70;0.70;;;;;;;;;;10300585;28;20247;-76
2023/09/22 05:28:50;;;;;;;0.60;0.60;;;;;;;;;;10288842;28;21055;-76
2023/09/22 05:33:51;;;;;;;0.60;0.60;;;;;;;;;;10290284;28;20313;-78
2023/09/22 05:38:53;;;;;;;0.95;0.40;;;;;;;;;;10324496;28;20208;-77
2023/09/22 05:43:56;;;;;;;0.90;0.55;;;;;;;;;;10301118;28;21149;-76
2023/09/22 05:48:57;;;;;;;1.70;0.32;;;;;;;;;;10299614;28;20244;-77
2023/09/22 05:53:59;;;;;;;0.25;0.25;;;;;;;;;;10306642;28;20216;-77
2023/09/22 05:59:00;;;;;;;1.08;0.30;;;;;;;;;;10285636;28;20267;-77
2023/09/22 06:04:04;;;;;;;0.10;0.10;;;;;;;;;;10278999;28;20225;-78
2023/09/22 06:09:11;;;;;;;1.08;0.20;;;;;;;;;;10301639;28;20765;-76
2023/09/22 06:14:12;;;;;;;0.20;0.20;;;;;;;;;;10301045;28;20701;-76
2023/09/22 06:19:13;;;;;;;0.30;0.30;;;;;;;;;;10304137;28;21862;-77
2023/09/22 06:24:17;;;;;;;2.22;0.22;;;;;;;;;;10326503;28;20232;-77
2023/09/22 06:29:18;;;;;;;0.25;0.20;;;;;;;;;;10320708;28;20311;-77
2023/09/22 06:34:20;;;;;;;0.22;0.22;;;;;;;;;;10285538;28;20212;-77
2023/09/22 06:39:21;;;;;;;0.22;0.22;;;;;;;;;;10299673;28;20216;-77
2023/09/22 06:44:22;;;;;;;1.45;0.30;;;;;;;;;;10290331;28;20224;-78
2023/09/22 06:49:24;;;;;;;0.60;0.60;;;;;;;;;;10277396;28;20766;-77
2023/09/22 06:54:26;;;;;;;1.75;0.30;;;;;;;;;;10297316;28;20200;-78
2023/09/22 06:59:27;;;;;;;0.30;0.30;;;;;;;;;;10301036;28;20208;-77
2023/09/22 07:04:28;;;;;;;0.30;0.30;;;;;;;;;;10307794;28;20213;-77
2023/09/22 07:09:29;;;;;;;1.55;0.30;;;;;;;;;;10289404;28;20232;-77
2023/09/22 07:14:30;;;;;;;0.40;0.40;;;;;;;;;;10303981;28;20307;-77
2023/09/22 07:19:32;;;;;;;0.30;0.30;;;;;;;;;;10286780;28;20303;-77
2023/09/22 07:24:34;;;;;;;0.40;0.40;;;;;;;;;;10300738;28;20780;-77
2023/09/22 07:29:35;;;;;;;0.30;0.30;;;;;;;;;;10290541;28;20227;-77
2023/09/22 07:34:36;;;;;;;0.50;0.50;;;;;;;;;;10292150;28;20238;-77
2023/09/22 07:39:37;;;;;;;1.67;0.30;;;;;;;;;;10302401;28;20208;-77
2023/09/22 07:44:39;;;;;;;0.30;0.30;;;;;;;;;;10289640;28;20219;-77
2023/09/22 07:49:40;;;;;;;0.30;0.30;;;;;;;;;;10286043;28;20909;-78
2023/09/22 07:54:41;;;;;;;0.30;0.30;;;;;;;;;;10296074;28;20219;-77
2023/09/22 07:59:42;;;;;;;0.50;0.30;;;;;;;;;;10286322;28;20244;-75
2023/09/22 08:04:44;;;;;;;0.45;0.28;;;;;;;;;;10286640;28;20312;-76
2023/09/22 08:09:45;;;;;;;2.60;0.40;;;;;;;;;;10270045;28;20696;-77
2023/09/22 08:14:46;;;;;;;1.23;0.30;;;;;;;;;;10301678;28;20278;-77
2023/09/22 08:19:48;;;;;;;2.90;0.32;;;;;;;;;;10322459;28;20220;-77
2023/09/22 08:24:49;;;;;;;0.20;0.20;;;;;;;;;;10302256;28;20267;-77
2023/09/22 08:29:50;;;;;;;0.38;0.30;;;;;;;;;;10312739;28;20224;-77
2023/09/22 08:34:51;;;;;;;2.47;0.38;;;;;;;;;;10300071;28;20208;-77
2023/09/22 08:39:55;;;;;;;0.22;0.22;;;;;;;;;;10295368;28;20228;-77
2023/09/22 08:44:56;;;;;;;0.35;0.35;;;;;;;;;;10285978;28;20224;-79
2023/09/22 08:49:57;;;;;;;0.30;0.30;;;;;;;;;;10297347;28;20699;-76
2023/09/22 08:55:00;;;;;;;0.25;0.25;;;;;;;;;;10308843;28;20219;-77
2023/09/22 09:00:10;;;;;;;1.30;0.30;;;;;;;;;;10300288;28;20217;-77
2023/09/22 09:05:20;;;;;;;1.65;0.38;;;;;;;;;;10300977;28;20213;-78
2023/09/22 09:10:25;;;;;;;0.30;0.30;;;;;;;;;;10313332;28;20236;-77
2023/09/22 09:15:26;;;;;;;0.73;0.20;;;;;;;;;;10285474;28;20213;-77
2023/09/22 09:20:27;;;;;;;0.20;0.20;;;;;;;;;;10295059;28;20224;-78
2023/09/22 09:25:29;;;;;;;0.75;0.30;;;;;;;;;;10295582;28;20224;-77
2023/09/22 09:30:31;;;;;;;0.30;0.30;;;;;;;;;;10308985;28;20225;-77
2023/09/22 09:35:32;;;;;;;1.73;0.35;;;;;;;;;;10297914;28;20244;-78
2023/09/22 09:40:37;;;;;;;0.50;0.50;;;;;;;;;;10314057;28;21534;-77
2023/09/22 09:45:57;;;;;;;0.30;0.30;;;;;;;;;;10300899;28;20221;-78
2023/09/22 09:50:59;;;;;;;0.52;0.30;;;;;;;;;;10295926;28;20267;-77
2023/09/22 09:56:03;;;;;;;0.30;0.30;;;;;;;;;;10301054;28;20850;-77
2023/09/22 10:01:07;;;;;;;0.30;0.30;;;;;;;;;;10290961;28;21453;-78
2023/09/22 10:06:17;;;;;;;0.57;0.30;;;;;;;;;;10294181;28;20236;-77
2023/09/22 10:11:18;;;;;;;2.00;0.40;;;;;;;;;;10294228;28;20235;-77
2023/09/22 10:16:29;;;;;;;0.30;0.30;;;;;;;;;;10311604;28;20223;-78
2023/09/22 10:21:48;;;;;;;0.73;0.22;;;;;;;;;;10305219;28;20407;-77
2023/09/22 10:26:55;;;;;;;0.30;0.30;;;;;;;;;;10307991;28;20216;-77
2023/09/22 10:32:18;;;;;;;0.45;0.30;;;;;;;;;;10308854;28;20223;-78
2023/09/22 10:37:20;;;;;;;0.38;0.30;;;;;;;;;;10307148;28;20592;-78
2023/09/22 10:42:22;;;;;;;0.30;0.30;;;;;;;;;;10301911;28;20307;-78
2023/09/22 10:47:23;;;;;;;0.35;0.35;;;;;;;;;;10309161;28;20253;-78
2023/09/22 10:52:24;;;;;;;0.68;0.30;;;;;;;;;;10311750;28;20220;-78
2023/09/22 10:57:27;;;;;;;0.88;0.40;;;;;;;;;;10306853;28;20217;-78
2023/09/22 11:02:28;;;;;;;0.20;0.20;;;;;;;;;;10311139;28;20228;-78
2023/09/22 11:07:30;;;;;;;1.38;0.30;;;;;;;;;;10304877;28;20224;-78
2023/09/22 11:12:31;;;;;;;0.20;0.20;;;;;;;;;;10316732;28;20299;-78
2023/09/22 11:17:41;;;;;;;1.17;0.20;;;;;;;;;;10299818;28;20225;-78
2023/09/22 11:22:43;;;;;;;0.43;0.20;;;;;;;;;;10298537;28;20749;-78
2023/09/22 11:27:48;;;;;;;0.32;0.32;;;;;;;;;;10304649;28;20228;-77
2023/09/22 11:32:49;;;;;;;0.30;0.30;;;;;;;;;;10304205;28;20252;-77
2023/09/22 11:37:50;;;;;;;1.00;0.30;;;;;;;;;;10302708;28;20213;-78
2023/09/22 11:42:51;;;;;;;0.22;0.20;;;;;;;;;;10305146;28;20315;-76
2023/09/22 11:48:05;;;;;;;0.60;0.30;;;;;;;;;;10292512;28;20220;-77
2023/09/22 11:53:10;;;;;;;0.55;0.20;;;;;;;;;;10291401;28;20236;-76
2023/09/22 11:58:11;;;;;;;0.30;0.30;;;;;;;;;;10298920;28;21601;-77
2023/09/22 12:03:12;;;;;;;0.30;0.30;;;;;;;;;;10282809;28;20224;-77
2023/09/22 12:08:13;;;;;;;2.20;0.30;;;;;;;;;;10242094;28;21158;-77
2023/09/22 12:13:14;;;;;;;0.17;0.17;;;;;;;;;;10249052;28;20733;-78
2023/09/22 12:18:15;;;;;;;0.30;0.30;;;;;;;;;;10251264;28;20212;-78
2023/09/22 12:23:16;;;;;;;0.60;0.40;;;;;;;;;;10253626;28;20216;-78
2023/09/22 12:28:17;;;;;;;0.20;0.20;;;;;;;;;;10238655;28;20584;-78
2023/09/22 12:33:19;;;;;;;0.20;0.20;;;;;;;;;;10239083;28;20233;-78
2023/09/22 12:38:20;;;;;;;0.20;0.20;;;;;;;;;;10238837;28;20228;-78
2023/09/22 12:43:21;;;;;;;0.30;0.20;;;;;;;;;;10251591;28;20820;-79
2023/09/22 12:48:22;;;;;;;0.55;0.38;;;;;;;;;;10260823;28;20869;-78
2023/09/22 12:53:24;;;;;;;0.20;0.20;;;;;;;;;;10269022;28;20225;-78
2023/09/22 12:58:29;;;;;;;0.28;0.25;;;;;;;;;;10280052;28;20350;-79
2023/09/22 13:03:30;;;;;;;0.43;0.20;;;;;;;;;;10272153;28;20229;-79
2023/09/22 13:08:33;;;;;;;0.20;0.20;;;;;;;;;;10261025;28;20739;-79
2023/09/22 13:13:34;;;;;;;0.20;0.20;;;;;;;;;;10255280;28;20224;-78
2023/09/22 13:18:35;;;;;;;0.10;0.10;;;;;;;;;;10261205;28;20212;-78
2023/09/22 13:23:36;;;;;;;0.30;0.30;;;;;;;;;;10273246;28;20238;-78
2023/09/22 13:28:38;;;;;;;1.13;0.20;;;;;;;;;;10288859;28;20209;-78
2023/09/22 13:33:39;;;;;;;1.25;0.35;;;;;;;;;;10293648;28;20315;-78
2023/09/22 13:38:40;;;;;;;0.30;0.30;;;;;;;;;;10283514;28;20205;-78
2023/09/22 13:43:43;;;;;;;0.30;0.30;;;;;;;;;;10282760;28;20217;-78
2023/09/22 13:48:45;;;;;;;0.30;0.30;;;;;;;;;;10285332;28;20213;-79
2023/09/22 13:53:46;;;;;;;0.20;0.20;;;;;;;;;;10284163;28;20224;-78
2023/09/22 13:58:48;;;;;;;0.40;0.40;;;;;;;;;;10274050;28;20268;-78
2023/09/22 14:03:49;;;;;;;0.30;0.30;;;;;;;;;;10271644;28;20276;-78
2023/09/22 14:08:53;;;;;;;1.50;0.40;;;;;;;;;;10271455;28;20240;-78
2023/09/22 14:13:54;;;;;;;0.30;0.30;;;;;;;;;;10312959;28;20702;-78
2023/09/22 14:18:55;;;;;;;0.50;0.50;;;;;;;;;;10317173;28;20282;-78
2023/09/22 14:23:56;;;;;;;1.85;0.35;;;;;;;;;;10308425;28;20225;-79
2023/09/22 14:28:57;;;;;;;0.40;0.40;;;;;;;;;;10294388;28;20340;-79
2023/09/22 14:33:58;;;;;;;1.35;0.50;;;;;;;;;;10311972;28;20893;-78
2023/09/22 14:38:59;;;;;;;0.47;0.47;;;;;;;;;;10326804;28;20217;-79
2023/09/22 14:44:00;;;;;;;0.90;0.40;;;;;;;;;;10307601;28;20243;-78
2023/09/22 14:49:02;;;;;;;1.75;0.50;;;;;;;;;;10327132;28;20217;-79
2023/09/22 14:54:03;;;;;;;0.40;0.38;;;;;;;;;;10308330;28;20963;-78
2023/09/22 14:59:04;;;;;;;0.50;0.50;;;;;;;;;;10311719;28;20620;-78
2023/09/22 15:04:05;;;;;;;0.50;0.50;;;;;;;;;;10325480;28;20225;-78
2023/09/22 15:09:07;;;;;;;0.32;0.32;;;;;;;;;;10312740;28;20232;-78
2023/09/22 15:14:09;;;;;;;1.55;0.20;;;;;;;;;;10307344;28;20224;-78
2023/09/22 15:19:10;;;;;;;0.20;0.20;;;;;;;;;;10309234;28;20248;-76
2023/09/22 15:24:11;;;;;;;0.40;0.40;;;;;;;;;;10287906;28;20610;-78
2023/09/22 15:29:12;;;;;;;0.35;0.25;;;;;;;;;;10284375;28;20213;-80
2023/09/22 15:34:13;;;;;;;0.30;0.30;;;;;;;;;;10267429;28;20319;-80
2023/09/22 15:39:14;;;;;;;0.80;0.47;;;;;;;;;;10256651;28;20205;-79
2023/09/22 15:44:16;;;;;;;1.08;0.30;;;;;;;;;;10295185;28;20220;-79
2023/09/22 15:49:17;;;;;;;0.30;0.30;;;;;;;;;;10293357;28;20230;-77
2023/09/22 15:54:18;;;;;;;0.30;0.30;;;;;;;;;;10276695;28;20213;-80
2023/09/22 15:59:19;;;;;;;0.40;0.40;;;;;;;;;;10301950;28;20215;-77
2023/09/22 16:04:20;;;;;;;0.30;0.30;;;;;;;;;;10315468;28;20223;-77
2023/09/22 16:09:22;;;;;;;1.80;0.32;;;;;;;;;;10300981;28;20231;-80
2023/09/22 16:14:23;;;;;;;0.30;0.30;;;;;;;;;;10297869;28;20209;-78
2023/09/22 16:19:24;;;;;;;0.30;0.30;;;;;;;;;;10290577;28;20287;-78
2023/09/22 16:24:26;;;;;;;0.30;0.30;;;;;;;;;;10329773;28;20205;-78
2023/09/22 16:29:27;;;;;;;0.35;0.35;;;;;;;;;;10327146;28;20208;-77
2023/09/22 16:34:28;;;;;;;0.22;0.22;;;;;;;;;;10309106;28;20208;-77
2023/09/22 16:39:29;;;;;;;0.30;0.30;;;;;;;;;;10316506;28;20209;-77
2023/09/22 16:44:30;;;;;;;0.40;0.40;;;;;;;;;;10288779;28;20216;-76
2023/09/22 16:49:31;;;;;;;0.40;0.40;;;;;;;;;;10324757;28;20219;-77
2023/09/22 16:54:32;;;;;;;2.60;0.40;;;;;;;;;;10315845;28;20204;-77
2023/09/22 16:59:33;;;;;;;0.57;0.30;;;;;;;;;;10303854;28;20308;-76
2023/09/22 17:04:34;;;;;;;0.30;0.30;;;;;;;;;;10321374;28;20214;-79
2023/09/22 17:09:35;;;;;;;0.20;0.20;;;;;;;;;;10299536;28;20245;-79
2023/09/22 17:14:36;;;;;;;0.70;0.70;;;;;;;;;;10297814;28;20217;-77
2023/09/22 17:19:37;;;;;;;1.50;1.50;;;;;;;;;;10309128;28;20276;-78
2023/09/22 17:24:38;;;;;;;0.60;0.60;;;;;;;;;;10294672;28;20216;-77
2023/09/22 17:29:46;;;;;;;0.50;0.50;;;;;;;;;;10309939;28;20220;-78
2023/09/22 17:34:50;;;;;;;1.00;1.00;;;;;;;;;;10232702;28;20598;-77
2023/09/22 17:39:51;;;;;;;1.08;0.63;;;;;;;;;;10255095;28;20718;-77
2023/09/22 17:44:52;;;;;;;0.50;0.50;;;;;;;;;;10247982;28;20324;-77
2023/09/22 17:49:54;;;;;;;3.58;3.28;;;;;;;;;;10268284;28;20217;-77
2023/09/22 17:54:55;;;;;;;0.90;0.90;;;;;;;;;;10277264;28;20300;-77
2023/09/22 17:59:57;;;;;;;7.05;5.45;;;;;;;;;;10273654;28;20225;-78
2023/09/22 18:04:58;;;;;;;2.65;2.53;;;;;;;;;;10259408;28;20307;-77
2023/09/22 18:09:59;;;;;;;0.50;0.50;;;;;;;;;;10296325;28;20294;-78
2023/09/22 18:15:00;;;;;;;1.65;0.60;;;;;;;;;;10291586;28;20296;-78
2023/09/22 18:20:01;;;;;;;0.73;0.73;;;;;;;;;;10303638;28;20344;-78
2023/09/22 18:25:04;;;;;;;0.40;0.40;;;;;;;;;;10316722;28;20296;-78
2023/09/22 18:30:06;;;;;;;0.75;0.75;;;;;;;;;;10317865;28;20217;-79
2023/09/22 18:35:07;;;;;;;0.80;0.80;;;;;;;;;;10313046;28;20185;-78
2023/09/22 18:40:09;;;;;;;1.02;1.02;;;;;;;;;;10298771;28;20217;-80
2023/09/22 18:45:12;;;;;;;1.30;1.30;;;;;;;;;;10317847;28;20957;-79
2023/09/22 18:50:14;;;;;;;1.17;1.05;;;;;;;;;;10283883;28;20219;-77
2023/09/22 18:55:15;;;;;;;1.00;1.00;;;;;;;;;;10277773;28;20216;-78
2023/09/22 19:00:19;;;;;;;1.35;1.20;;;;;;;;;;10315051;28;20217;-78
2023/09/22 19:05:24;;;;;;;0.73;0.73;;;;;;;;;;10316588;28;20659;-78
2023/09/22 19:10:25;;;;;;;0.70;0.70;;;;;;;;;;10240403;28;20234;-78
2023/09/22 19:15:26;;;;;;;0.93;0.93;;;;;;;;;;10225422;28;20221;-78
2023/09/22 19:20:30;;;;;;;0.90;0.90;;;;;;;;;;10238823;28;20226;-78
2023/09/22 19:25:32;;;;;;;1.02;1.02;;;;;;;;;;10244232;28;20756;-78
2023/09/22 19:30:37;;;;;;;0.80;0.80;;;;;;;;;;10250450;28;20232;-78
2023/09/22 19:35:39;;;;;;;1.00;1.00;;;;;;;;;;10241951;28;20308;-79
2023/09/22 19:40:41;;;;;;;1.95;0.98;;;;;;;;;;10242097;28;20214;-78
2023/09/22 19:45:42;;;;;;;0.77;0.77;;;;;;;;;;10244856;28;20233;-78
2023/09/22 19:50:43;;;;;;;0.70;0.70;;;;;;;;;;10223013;28;20229;-77
2023/09/22 19:55:44;;;;;;;1.00;1.00;;;;;;;;;;10248180;28;20213;-78
2023/09/22 20:00:46;;;;;;;1.92;0.88;;;;;;;;;;10238529;28;20233;-78
2023/09/22 20:05:49;;;;;;;0.77;0.77;;;;;;;;;;10242870;28;20488;-77
2023/09/22 20:10:59;;;;;;;0.63;0.63;;;;;;;;;;10287185;28;20563;-77
2023/09/22 20:16:05;;;;;;;0.60;0.60;;;;;;;;;;10307314;28;20220;-77
2023/09/22 20:21:08;;;;;;;0.70;0.70;;;;;;;;;;10320238;28;20315;-77
2023/09/22 20:26:10;;;;;;;1.40;0.60;;;;;;;;;;10303979;28;20236;-77
2023/09/22 20:31:13;;;;;;;0.70;0.70;;;;;;;;;;10287269;28;20340;-78
2023/09/22 20:36:14;;;;;;;0.50;0.50;;;;;;;;;;10303509;28;20729;-78
2023/09/22 20:41:16;;;;;;;0.57;0.57;;;;;;;;;;10336979;28;20317;-77
2023/09/22 20:46:17;;;;;;;1.35;0.80;;;;;;;;;;10336554;28;20208;-78
2023/09/22 20:51:18;;;;;;;0.70;0.70;;;;;;;;;;10316044;28;20224;-78
2023/09/22 20:56:19;;;;;;;0.70;0.70;;;;;;;;;;10303808;28;20213;-79
2023/09/22 21:01:21;;;;;;;0.60;0.60;;;;;;;;;;10333956;28;20224;-79
2023/09/22 21:06:22;;;;;;;0.77;0.65;;;;;;;;;;10313931;28;20316;-80
2023/09/22 21:11:23;;;;;;;0.60;0.60;;;;;;;;;;10281708;28;20247;-78
2023/09/22 21:16:24;;;;;;;0.50;0.50;;;;;;;;;;10288359;28;20260;-80
2023/09/22 21:21:25;;;;;;;0.47;0.47;;;;;;;;;;10278381;28;20217;-78
2023/09/22 21:26:26;;;;;;;2.15;0.50;;;;;;;;;;10299260;28;20249;-79
2023/09/22 21:31:27;;;;;;;0.60;0.60;;;;;;;;;;10273857;28;20221;-79
2023/09/22 21:36:29;;;;;;;0.40;0.40;;;;;;;;;;10305407;28;20219;-78
2023/09/22 21:41:30;;;;;;;0.60;0.60;;;;;;;;;;10301646;28;20220;-78
2023/09/22 21:46:31;;;;;;;0.60;0.60;;;;;;;;;;10308638;28;20217;-78
2023/09/22 21:51:32;;;;;;;0.95;0.60;;;;;;;;;;10284219;28;20586;-78
2023/09/22 21:56:33;;;;;;;0.70;0.70;;;;;;;;;;10300588;28;20751;-80
2023/09/22 22:01:34;;;;;;;0.50;0.50;;;;;;;;;;10288388;28;20213;-79
2023/09/22 22:06:43;;;;;;;0.47;0.47;;;;;;;;;;10282541;28;20233;-78
2023/09/22 22:11:45;;;;;;;0.50;0.50;;;;;;;;;;10317046;28;20303;-77
2023/09/22 22:16:46;;;;;;;1.55;0.60;;;;;;;;;;10317604;28;20218;-78
2023/09/22 22:21:50;;;;;;;0.50;0.50;;;;;;;;;;10320706;28;20250;-78
2023/09/22 22:26:52;;;;;;;0.60;0.60;;;;;;;;;;10318689;28;20292;-78
2023/09/22 22:31:53;;;;;;;0.60;0.60;;;;;;;;;;10309296;28;20311;-79
2023/09/22 22:36:54;;;;;;;0.77;0.60;;;;;;;;;;10313075;28;20253;-79
2023/09/22 22:41:55;;;;;;;0.60;0.60;;;;;;;;;;10320163;28;20726;-79
2023/09/22 22:46:56;;;;;;;0.63;0.40;;;;;;;;;;10334198;28;20227;-79
2023/09/22 22:51:57;;;;;;;0.50;0.50;;;;;;;;;;10321503;28;20231;-78
2023/09/22 22:56:59;;;;;;;0.40;0.40;;;;;;;;;;10300766;28;20209;-78
2023/09/22 23:02:00;;;;;;;1.75;0.60;;;;;;;;;;10297565;28;20225;-77
2023/09/22 23:07:01;;;;;;;0.50;0.50;;;;;;;;;;10319727;28;20260;-78
2023/09/22 23:12:03;;;;;;;0.50;0.50;;;;;;;;;;10313081;28;20221;-78
2023/09/22 23:17:04;;;;;;;0.65;0.60;;;;;;;;;;10339826;28;20223;-78
2023/09/22 23:22:08;;;;;;;0.50;0.50;;;;;;;;;;10309038;28;20840;-78
2023/09/22 23:27:10;;;;;;;0.60;0.60;;;;;;;;;;10336871;28;20212;-78
2023/09/22 23:32:11;;;;;;;0.57;0.57;;;;;;;;;;10317733;28;20229;-77
2023/09/22 23:37:13;;;;;;;0.50;0.50;;;;;;;;;;10318505;28;20287;-76
2023/09/22 23:42:14;;;;;;;0.63;0.63;;;;;;;;;;10312859;28;20299;-77
2023/09/22 23:47:15;;;;;;;0.80;0.80;;;;;;;;;;10336668;28;20215;-77
2023/09/22 23:52:16;;;;;;;0.60;0.60;;;;;;;;;;10323237;28;20713;-77
2023/09/22 23:57:18;;;;;;;0.60;0.60;;;;;;;;;;10315934;28;20212;-77
